Time;durP1;ratioP1;P1;durP2;ratioP2;P2;SDS_P1;SDS_P2;PMS_P1;PMS_P2;Temp;Humidity;BMP_temperature;BMP_pressure;BME280_temperature;BME280_humidity;BME280_pressure;Samples;Min_cycle;Max_cycle;Signal;HPM_P1;HPM_P2
2021/08/18 00:00:56;;;;;;;28.58;17.08;;;;;;;;;;5074112;28;20028;-43
2021/08/18 00:03:22;;;;;;;23.13;15.65;;;;;;;;;;5074315;28;20032;-45
2021/08/18 00:05:49;;;;;;;25.95;15.52;;;;;;;;;;5074168;28;20797;-44
2021/08/18 00:08:15;;;;;;;26.20;15.82;;;;;;;;;;5073970;28;20029;-43
2021/08/18 00:10:42;;;;;;;21.25;15.05;;;;;;;;;;5073865;28;20464;-44
2021/08/18 00:13:09;;;;;;;24.30;16.33;;;;;;;;;;5073892;28;20405;-44
2021/08/18 00:15:35;;;;;;;27.65;18.00;;;;;;;;;;5072398;28;20021;-44
2021/08/18 00:18:03;;;;;;;26.52;17.40;;;;;;;;;;5073638;28;20043;-44
2021/08/18 00:20:29;;;;;;;24.95;16.88;;;;;;;;;;5073764;28;20049;-44
2021/08/18 00:22:55;;;;;;;29.23;21.08;;;;;;;;;;5073405;28;20120;-44
2021/08/18 00:25:22;;;;;;;31.23;23.65;;;;;;;;;;5073629;28;20361;-44
2021/08/18 00:27:48;;;;;;;38.47;23.85;;;;;;;;;;5073549;28;20051;-44
2021/08/18 00:30:14;;;;;;;31.95;23.60;;;;;;;;;;5072350;28;20427;-44
2021/08/18 00:32:40;;;;;;;34.10;23.45;;;;;;;;;;5073554;28;20487;-44
2021/08/18 00:35:06;;;;;;;29.27;21.48;;;;;;;;;;5073247;28;20033;-43
2021/08/18 00:37:32;;;;;;;31.92;23.27;;;;;;;;;;5073287;28;20099;-44
2021/08/18 00:39:58;;;;;;;29.80;19.10;;;;;;;;;;5072083;28;20029;-47
2021/08/18 00:42:24;;;;;;;28.95;20.55;;;;;;;;;;5073277;28;20070;-44
2021/08/18 00:44:50;;;;;;;27.05;18.95;;;;;;;;;;5073178;28;20032;-44
2021/08/18 00:47:16;;;;;;;31.63;18.50;;;;;;;;;;5073306;28;20055;-45
2021/08/18 00:49:42;;;;;;;27.05;16.88;;;;;;;;;;5071864;28;20068;-46
2021/08/18 00:52:08;;;;;;;25.35;18.08;;;;;;;;;;5073172;28;20052;-45
2021/08/18 00:54:34;;;;;;;26.67;18.88;;;;;;;;;;5073025;28;20028;-45
2021/08/18 00:57:02;;;;;;;29.38;19.10;;;;;;;;;;5072962;28;20078;-45
2021/08/18 00:59:29;;;;;;;30.23;19.33;;;;;;;;;;5072819;28;20103;-44
2021/08/18 01:01:55;;;;;;;26.02;19.65;;;;;;;;;;5071529;28;20029;-44
2021/08/18 01:04:21;;;;;;;32.97;20.80;;;;;;;;;;5072816;28;20166;-47
2021/08/18 01:06:47;;;;;;;31.50;20.92;;;;;;;;;;5072756;28;20021;-46
2021/08/18 01:09:15;;;;;;;29.52;19.52;;;;;;;;;;5072828;28;20068;-48
2021/08/18 01:11:45;;;;;;;30.70;21.85;;;;;;;;;;5072544;28;20037;-44
2021/08/18 01:14:11;;;;;;;31.48;21.25;;;;;;;;;;5072201;28;20033;-47
2021/08/18 01:16:38;;;;;;;31.42;20.63;;;;;;;;;;5072399;28;20032;-44
2021/08/18 01:19:04;;;;;;;31.58;22.73;;;;;;;;;;5072375;28;20028;-45
2021/08/18 01:21:32;;;;;;;37.83;25.08;;;;;;;;;;5072330;28;20028;-44
2021/08/18 01:23:58;;;;;;;35.78;24.40;;;;;;;;;;5072393;28;20053;-48
2021/08/18 01:26:24;;;;;;;35.83;23.75;;;;;;;;;;5071270;28;20128;-45
2021/08/18 01:28:50;;;;;;;32.58;22.48;;;;;;;;;;5072474;28;20035;-44
2021/08/18 01:31:17;;;;;;;34.72;24.92;;;;;;;;;;5072262;28;20097;-44
2021/08/18 01:33:43;;;;;;;36.45;21.55;;;;;;;;;;5072017;28;20484;-45
2021/08/18 01:36:09;;;;;;;28.48;19.65;;;;;;;;;;5072320;28;20032;-44
2021/08/18 01:38:35;;;;;;;34.28;22.75;;;;;;;;;;5072257;28;20021;-44
2021/08/18 01:41:02;;;;;;;33.28;21.42;;;;;;;;;;5072235;28;20024;-44
2021/08/18 01:43:28;;;;;;;36.35;23.17;;;;;;;;;;5072212;28;20119;-43
2021/08/18 01:45:54;;;;;;;37.67;25.73;;;;;;;;;;5072094;28;20138;-45
2021/08/18 01:48:24;;;;;;;35.17;24.75;;;;;;;;;;5070778;28;20052;-44
2021/08/18 01:50:52;;;;;;;39.75;23.85;;;;;;;;;;5071995;28;20020;-45
2021/08/18 01:53:19;;;;;;;42.38;24.15;;;;;;;;;;5072221;28;20530;-45
2021/08/18 01:55:45;;;;;;;34.08;22.98;;;;;;;;;;5071848;28;20031;-45
2021/08/18 01:58:11;;;;;;;36.78;22.50;;;;;;;;;;5072155;28;20027;-45
2021/08/18 02:00:37;;;;;;;36.17;21.60;;;;;;;;;;5072016;28;20029;-43
2021/08/18 02:03:03;;;;;;;39.17;25.27;;;;;;;;;;5071854;28;20021;-44
2021/08/18 02:05:29;;;;;;;52.92;33.63;;;;;;;;;;5071707;28;20024;-44
2021/08/18 02:07:55;;;;;;;49.97;31.42;;;;;;;;;;5071711;28;20104;-46
2021/08/18 02:10:22;;;;;;;48.63;32.17;;;;;;;;;;5071855;28;20032;-44
2021/08/18 02:12:49;;;;;;;44.70;32.03;;;;;;;;;;5071695;28;20103;-44
2021/08/18 02:15:17;;;;;;;44.78;28.88;;;;;;;;;;5071653;28;20063;-43
2021/08/18 02:17:43;;;;;;;43.28;31.10;;;;;;;;;;5071603;28;20029;-44
2021/08/18 02:20:12;;;;;;;40.88;29.55;;;;;;;;;;5071412;28;20027;-44
2021/08/18 02:22:38;;;;;;;40.42;29.90;;;;;;;;;;5071208;28;20405;-44
2021/08/18 02:25:04;;;;;;;38.00;26.27;;;;;;;;;;5071573;28;20032;-45
2021/08/18 02:27:30;;;;;;;38.17;28.48;;;;;;;;;;5071477;28;20033;-44
2021/08/18 02:29:56;;;;;;;39.38;27.55;;;;;;;;;;5071392;28;20027;-45
2021/08/18 02:32:22;;;;;;;39.17;26.35;;;;;;;;;;5071447;28;20028;-43
2021/08/18 02:34:48;;;;;;;39.70;27.17;;;;;;;;;;5071359;28;20031;-44
2021/08/18 02:37:15;;;;;;;38.17;25.60;;;;;;;;;;5071705;28;20016;-44
2021/08/18 02:39:41;;;;;;;34.70;23.23;;;;;;;;;;5081713;28;20480;-46
2021/08/18 02:42:07;;;;;;;39.08;25.85;;;;;;;;;;5072309;28;20032;-43
2021/08/18 02:44:33;;;;;;;40.33;28.23;;;;;;;;;;5071248;28;20028;-47
2021/08/18 02:46:59;;;;;;;38.00;28.10;;;;;;;;;;5071226;28;20021;-43
2021/08/18 02:49:25;;;;;;;41.33;28.73;;;;;;;;;;5071249;28;20029;-44
2021/08/18 02:51:51;;;;;;;43.40;28.25;;;;;;;;;;5071207;28;20033;-43
2021/08/18 02:54:17;;;;;;;30.02;22.25;;;;;;;;;;5071242;28;20024;-43
2021/08/18 02:56:43;;;;;;;36.78;25.42;;;;;;;;;;5071258;28;20021;-43
2021/08/18 02:59:11;;;;;;;34.63;22.30;;;;;;;;;;5071155;28;20032;-43
2021/08/18 03:01:37;;;;;;;37.22;24.38;;;;;;;;;;5071075;28;20028;-43
2021/08/18 03:04:03;;;;;;;34.78;22.02;;;;;;;;;;5071141;28;20338;-43
2021/08/18 03:06:29;;;;;;;30.20;20.10;;;;;;;;;;5071082;28;20046;-43
2021/08/18 03:08:55;;;;;;;30.17;20.45;;;;;;;;;;5069980;28;20028;-42
2021/08/18 03:11:21;;;;;;;29.73;19.30;;;;;;;;;;5071171;28;20025;-43
2021/08/18 03:13:47;;;;;;;37.75;22.63;;;;;;;;;;5071032;28;20078;-46
2021/08/18 03:16:13;;;;;;;32.85;20.45;;;;;;;;;;5070043;28;20021;-44
2021/08/18 03:18:39;;;;;;;27.50;19.40;;;;;;;;;;5071138;28;20021;-44
2021/08/18 03:21:05;;;;;;;26.00;18.55;;;;;;;;;;5070960;28;20503;-44
2021/08/18 03:23:31;;;;;;;24.77;17.33;;;;;;;;;;5070854;28;20045;-44
2021/08/18 03:25:57;;;;;;;20.42;14.90;;;;;;;;;;5071009;28;20488;-44
2021/08/18 03:28:23;;;;;;;31.17;15.80;;;;;;;;;;5070915;28;20021;-43
2021/08/18 03:30:49;;;;;;;24.35;16.90;;;;;;;;;;5070906;28;20480;-44
2021/08/18 03:33:15;;;;;;;21.35;15.05;;;;;;;;;;5072230;28;20024;-44
2021/08/18 03:35:41;;;;;;;24.38;14.85;;;;;;;;;;5074617;28;20384;-44
2021/08/18 03:38:07;;;;;;;20.35;14.38;;;;;;;;;;5074539;28;20523;-43
2021/08/18 03:40:33;;;;;;;20.88;13.30;;;;;;;;;;5074408;28;20028;-43
2021/08/18 03:43:01;;;;;;;19.25;12.70;;;;;;;;;;5074491;28;20067;-43
2021/08/18 03:45:27;;;;;;;18.83;14.02;;;;;;;;;;5074395;28;20031;-45
2021/08/18 03:47:53;;;;;;;22.45;13.57;;;;;;;;;;5073720;28;20021;-44
2021/08/18 03:50:19;;;;;;;21.02;14.73;;;;;;;;;;5074322;28;20066;-43
2021/08/18 03:52:45;;;;;;;18.40;12.38;;;;;;;;;;5073988;28;20024;-43
2021/08/18 03:55:12;;;;;;;16.73;12.20;;;;;;;;;;5073821;28;20032;-44
2021/08/18 03:57:38;;;;;;;17.15;11.80;;;;;;;;;;5073984;28;20031;-44
2021/08/18 04:00:05;;;;;;;20.58;12.13;;;;;;;;;;5073952;28;20104;-46
2021/08/18 04:02:31;;;;;;;19.70;11.85;;;;;;;;;;5073957;28;20025;-45
2021/08/18 04:04:57;;;;;;;19.08;11.43;;;;;;;;;;5073832;28;20028;-45
2021/08/18 04:07:23;;;;;;;15.10;10.65;;;;;;;;;;5073904;28;20025;-43
2021/08/18 04:09:49;;;;;;;16.15;11.60;;;;;;;;;;5073821;28;20029;-45
2021/08/18 04:12:15;;;;;;;13.82;10.43;;;;;;;;;;5074085;28;20475;-45
2021/08/18 04:14:41;;;;;;;18.15;9.02;;;;;;;;;;5073700;28;20029;-44
2021/08/18 04:17:07;;;;;;;10.40;8.43;;;;;;;;;;5073982;28;20024;-44
2021/08/18 04:19:33;;;;;;;9.40;8.40;;;;;;;;;;5073635;28;20024;-44
2021/08/18 04:21:59;;;;;;;10.88;8.93;;;;;;;;;;5073400;28;20029;-44
2021/08/18 04:24:25;;;;;;;11.07;8.32;;;;;;;;;;5073544;28;20047;-44
2021/08/18 04:26:51;;;;;;;8.93;7.50;;;;;;;;;;5073373;28;20025;-43
2021/08/18 04:29:18;;;;;;;9.48;7.53;;;;;;;;;;5072072;28;20036;-45
2021/08/18 04:31:44;;;;;;;11.10;8.05;;;;;;;;;;5073352;28;20024;-43
2021/08/18 04:34:10;;;;;;;13.13;7.13;;;;;;;;;;5073179;28;20029;-44
2021/08/18 04:36:36;;;;;;;10.10;7.07;;;;;;;;;;5073140;28;20028;-45
2021/08/18 04:39:02;;;;;;;11.00;7.32;;;;;;;;;;5073236;28;20017;-45
2021/08/18 04:41:28;;;;;;;7.55;6.15;;;;;;;;;;5073014;28;20024;-43
2021/08/18 04:43:54;;;;;;;7.47;6.47;;;;;;;;;;5072780;28;20078;-44
2021/08/18 04:46:20;;;;;;;7.82;7.03;;;;;;;;;;5071741;28;20025;-44
2021/08/18 04:48:46;;;;;;;11.32;7.63;;;;;;;;;;5073080;28;20024;-44
2021/08/18 04:51:12;;;;;;;9.38;6.47;;;;;;;;;;5072966;28;20380;-44
2021/08/18 04:53:38;;;;;;;7.63;6.82;;;;;;;;;;5072903;28;20025;-45
2021/08/18 04:56:04;;;;;;;12.20;6.95;;;;;;;;;;5072714;28;20021;-44
2021/08/18 04:58:30;;;;;;;8.38;6.88;;;;;;;;;;5072773;28;20099;-45
2021/08/18 05:00:56;;;;;;;8.45;6.97;;;;;;;;;;5072810;28;20097;-45
2021/08/18 05:03:22;;;;;;;8.93;6.18;;;;;;;;;;5072646;28;20056;-45
2021/08/18 05:05:49;;;;;;;11.57;7.28;;;;;;;;;;5072657;28;20052;-44
2021/08/18 05:08:15;;;;;;;14.80;7.03;;;;;;;;;;5072613;28;20039;-44
2021/08/18 05:10:41;;;;;;;11.00;7.13;;;;;;;;;;5072675;28;20040;-49
2021/08/18 05:13:07;;;;;;;10.85;7.75;;;;;;;;;;5073108;28;20028;-44
2021/08/18 05:15:33;;;;;;;9.23;7.10;;;;;;;;;;5072654;28;20021;-45
2021/08/18 05:17:59;;;;;;;9.50;7.85;;;;;;;;;;5072323;28;20477;-44
2021/08/18 05:20:25;;;;;;;10.52;7.60;;;;;;;;;;5072332;28;20104;-44
2021/08/18 05:22:51;;;;;;;11.52;8.10;;;;;;;;;;5072127;28;20408;-44
2021/08/18 05:25:17;;;;;;;11.07;8.50;;;;;;;;;;5072234;28;20042;-45
2021/08/18 05:27:45;;;;;;;14.20;8.45;;;;;;;;;;5072239;28;20094;-45
2021/08/18 05:30:12;;;;;;;11.05;6.90;;;;;;;;;;5072137;28;20078;-46
2021/08/18 05:32:38;;;;;;;12.68;7.22;;;;;;;;;;5072184;28;20095;-48
2021/08/18 05:35:09;;;;;;;10.50;8.45;;;;;;;;;;5070597;28;20017;-45
2021/08/18 05:37:35;;;;;;;8.38;7.38;;;;;;;;;;5071796;28;20025;-45
2021/08/18 05:40:01;;;;;;;8.25;6.85;;;;;;;;;;5071855;28;20032;-45
2021/08/18 05:42:27;;;;;;;13.18;7.80;;;;;;;;;;5071973;28;20020;-46
2021/08/18 05:44:53;;;;;;;8.80;7.45;;;;;;;;;;5071820;28;20472;-45
2021/08/18 05:47:21;;;;;;;9.68;7.28;;;;;;;;;;5071913;28;20029;-44
2021/08/18 05:49:48;;;;;;;9.65;6.78;;;;;;;;;;5071791;28;20032;-45
2021/08/18 05:52:15;;;;;;;7.75;6.22;;;;;;;;;;5071739;28;20401;-46
2021/08/18 05:54:41;;;;;;;8.77;7.20;;;;;;;;;;5071826;28;20102;-44
2021/08/18 05:57:07;;;;;;;8.70;6.28;;;;;;;;;;5069833;28;20469;-44
2021/08/18 05:59:33;;;;;;;7.18;6.18;;;;;;;;;;5071607;28;20377;-45
2021/08/18 06:01:59;;;;;;;10.43;7.82;;;;;;;;;;5071659;28;20377;-44
2021/08/18 06:04:25;;;;;;;10.00;7.93;;;;;;;;;;5071640;28;20037;-46
2021/08/18 06:06:51;;;;;;;15.13;7.35;;;;;;;;;;5071582;28;20439;-44
2021/08/18 06:09:17;;;;;;;10.50;8.25;;;;;;;;;;5071377;28;20115;-45
2021/08/18 06:11:43;;;;;;;11.18;7.38;;;;;;;;;;5071459;28;20131;-47
2021/08/18 06:14:09;;;;;;;8.73;6.90;;;;;;;;;;5071504;28;20025;-45
2021/08/18 06:16:35;;;;;;;9.52;7.35;;;;;;;;;;5071556;28;20401;-44
2021/08/18 06:19:01;;;;;;;9.82;7.18;;;;;;;;;;5071772;28;20035;-45
2021/08/18 06:21:27;;;;;;;9.35;7.20;;;;;;;;;;5071140;28;20048;-45
2021/08/18 06:23:57;;;;;;;9.85;7.22;;;;;;;;;;5071492;28;20076;-46
2021/08/18 06:26:24;;;;;;;9.88;7.40;;;;;;;;;;5071429;28;20495;-47
2021/08/18 06:28:50;;;;;;;10.88;7.75;;;;;;;;;;5071422;28;20052;-44
2021/08/18 06:31:16;;;;;;;10.68;7.40;;;;;;;;;;5071295;28;20036;-48
2021/08/18 06:33:42;;;;;;;8.00;7.20;;;;;;;;;;5071295;28;20395;-45
2021/08/18 06:36:08;;;;;;;7.70;6.90;;;;;;;;;;5071209;28;20017;-46
2021/08/18 06:38:35;;;;;;;9.93;7.13;;;;;;;;;;5071316;28;20029;-47
2021/08/18 06:41:01;;;;;;;9.48;7.25;;;;;;;;;;5071376;28;20021;-47
2021/08/18 06:43:27;;;;;;;11.70;8.10;;;;;;;;;;5070045;28;20472;-44
2021/08/18 06:45:53;;;;;;;9.48;7.47;;;;;;;;;;5070222;28;20064;-44
2021/08/18 06:48:19;;;;;;;12.43;6.80;;;;;;;;;;5071354;28;20032;-47
2021/08/18 06:50:45;;;;;;;8.75;7.40;;;;;;;;;;5071329;28;20430;-47
2021/08/18 06:53:11;;;;;;;8.35;7.38;;;;;;;;;;5071291;28;20025;-44
2021/08/18 06:55:37;;;;;;;14.50;8.65;;;;;;;;;;5071112;28;20029;-46
2021/08/18 06:58:03;;;;;;;11.27;8.18;;;;;;;;;;5071333;28;20028;-45
2021/08/18 07:00:29;;;;;;;10.43;8.05;;;;;;;;;;5071016;28;20469;-44
2021/08/18 07:02:55;;;;;;;12.05;8.30;;;;;;;;;;5071029;28;20029;-47
2021/08/18 07:05:23;;;;;;;9.65;8.30;;;;;;;;;;5071414;28;20068;-45
2021/08/18 07:07:49;;;;;;;12.73;8.35;;;;;;;;;;5073453;28;20031;-46
2021/08/18 07:10:15;;;;;;;9.85;7.97;;;;;;;;;;5074886;28;20427;-45
2021/08/18 07:12:41;;;;;;;9.65;7.85;;;;;;;;;;5074896;28;20400;-46
2021/08/18 07:15:08;;;;;;;10.88;7.82;;;;;;;;;;5074669;28;20056;-48
2021/08/18 07:17:34;;;;;;;9.80;7.95;;;;;;;;;;5074676;28;20107;-44
2021/08/18 07:20:00;;;;;;;14.25;8.70;;;;;;;;;;5074576;28;20028;-44
2021/08/18 07:22:26;;;;;;;13.48;8.75;;;;;;;;;;5074476;28;20493;-45
2021/08/18 07:24:53;;;;;;;11.15;7.90;;;;;;;;;;5074581;28;20037;-46
2021/08/18 07:27:19;;;;;;;9.88;6.72;;;;;;;;;;5074665;28;20048;-44
2021/08/18 07:29:45;;;;;;;9.88;7.38;;;;;;;;;;5074458;28;20070;-45
2021/08/18 07:32:11;;;;;;;13.45;8.65;;;;;;;;;;5074402;28;20081;-44
2021/08/18 07:34:37;;;;;;;13.40;8.00;;;;;;;;;;5074227;28;20362;-48
2021/08/18 07:37:03;;;;;;;10.55;8.48;;;;;;;;;;5074516;28;20439;-47
2021/08/18 07:39:29;;;;;;;9.68;8.48;;;;;;;;;;5074284;28;20492;-46
2021/08/18 07:41:56;;;;;;;9.63;7.38;;;;;;;;;;5074196;28;20039;-45
2021/08/18 07:44:22;;;;;;;12.48;8.27;;;;;;;;;;5074221;28;20028;-45
2021/08/18 07:46:48;;;;;;;9.85;8.05;;;;;;;;;;5073998;28;20024;-46
2021/08/18 07:49:14;;;;;;;10.18;8.07;;;;;;;;;;5074350;28;20074;-46
2021/08/18 07:51:40;;;;;;;10.25;8.43;;;;;;;;;;5074485;28;20441;-48
2021/08/18 07:54:06;;;;;;;15.25;8.73;;;;;;;;;;5074325;28;20374;-45
2021/08/18 07:56:33;;;;;;;10.07;8.45;;;;;;;;;;5073949;28;20035;-44
2021/08/18 07:59:01;;;;;;;10.73;8.20;;;;;;;;;;5074020;28;20024;-45
2021/08/18 08:01:27;;;;;;;10.07;8.48;;;;;;;;;;5073902;28;20028;-45
2021/08/18 08:03:53;;;;;;;12.80;8.75;;;;;;;;;;5074201;28;20373;-46
2021/08/18 08:06:19;;;;;;;13.25;7.38;;;;;;;;;;5073742;28;20028;-45
2021/08/18 08:08:45;;;;;;;15.38;9.45;;;;;;;;;;5073882;28;20025;-44
2021/08/18 08:11:11;;;;;;;14.82;9.00;;;;;;;;;;5073759;28;20538;-43
2021/08/18 08:13:38;;;;;;;15.25;9.30;;;;;;;;;;5073517;28;20078;-44
2021/08/18 08:16:04;;;;;;;11.23;8.30;;;;;;;;;;5073423;28;20028;-44
2021/08/18 08:18:30;;;;;;;11.73;9.38;;;;;;;;;;5073072;28;20017;-45
2021/08/18 08:20:56;;;;;;;15.73;9.23;;;;;;;;;;5073467;28;20024;-45
2021/08/18 08:23:22;;;;;;;9.48;8.45;;;;;;;;;;5071967;28;20432;-45
2021/08/18 08:25:48;;;;;;;12.75;9.25;;;;;;;;;;5073379;28;20044;-47
2021/08/18 08:28:14;;;;;;;9.43;8.30;;;;;;;;;;5073380;28;20029;-47
2021/08/18 08:30:40;;;;;;;10.90;8.02;;;;;;;;;;5072102;28;20025;-47
2021/08/18 08:33:06;;;;;;;17.40;10.13;;;;;;;;;;5073248;28;20025;-44
2021/08/18 08:35:32;;;;;;;11.45;8.18;;;;;;;;;;5073129;28;20047;-44
2021/08/18 08:37:58;;;;;;;12.60;9.18;;;;;;;;;;5073256;28;20039;-44
2021/08/18 08:40:24;;;;;;;13.60;8.77;;;;;;;;;;5073253;28;20082;-47
2021/08/18 08:42:51;;;;;;;12.98;9.43;;;;;;;;;;5073178;28;20428;-48
2021/08/18 08:45:17;;;;;;;10.63;9.10;;;;;;;;;;5072989;28;20082;-46
2021/08/18 08:47:43;;;;;;;15.30;8.52;;;;;;;;;;5072961;28;20064;-45
2021/08/18 08:50:10;;;;;;;11.00;8.15;;;;;;;;;;5072857;28;20103;-45
2021/08/18 08:52:37;;;;;;;10.43;8.60;;;;;;;;;;5072966;28;20035;-48
2021/08/18 08:55:06;;;;;;;13.80;9.38;;;;;;;;;;5072773;28;20457;-47
2021/08/18 08:57:44;;;;;;;12.82;8.70;;;;;;;;;;5072709;28;20029;-44
2021/08/18 09:00:10;;;;;;;13.15;8.35;;;;;;;;;;5072760;28;20024;-45
2021/08/18 09:02:36;;;;;;;11.20;8.38;;;;;;;;;;5072920;28;20029;-44
2021/08/18 09:05:04;;;;;;;9.70;8.70;;;;;;;;;;5072618;28;20032;-44
2021/08/18 09:07:30;;;;;;;10.10;7.40;;;;;;;;;;5072676;28;20362;-45
2021/08/18 09:09:57;;;;;;;10.02;8.73;;;;;;;;;;5072526;28;20051;-46
2021/08/18 09:12:29;;;;;;;8.68;7.82;;;;;;;;;;5072291;28;20036;-45
2021/08/18 09:14:55;;;;;;;10.93;8.35;;;;;;;;;;5072293;28;20017;-44
2021/08/18 09:17:30;;;;;;;13.90;8.95;;;;;;;;;;5072440;28;20020;-45
2021/08/18 09:19:58;;;;;;;11.50;8.40;;;;;;;;;;5072277;28;20067;-46
2021/08/18 09:22:24;;;;;;;16.13;9.75;;;;;;;;;;5072195;28;20068;-47
2021/08/18 09:24:50;;;;;;;14.65;8.98;;;;;;;;;;5072366;28;20524;-44
2021/08/18 09:27:24;;;;;;;11.30;8.35;;;;;;;;;;5072225;28;20040;-45
2021/08/18 09:29:50;;;;;;;11.82;8.77;;;;;;;;;;5071962;28;20028;-44
2021/08/18 09:32:22;;;;;;;12.90;8.43;;;;;;;;;;5071566;28;20031;-45
2021/08/18 09:34:52;;;;;;;11.50;8.65;;;;;;;;;;5072036;28;20155;-47
2021/08/18 09:37:18;;;;;;;11.65;8.75;;;;;;;;;;5071716;28;20040;-47
2021/08/18 09:39:45;;;;;;;9.65;8.65;;;;;;;;;;5071706;28;20099;-46
2021/08/18 09:42:29;;;;;;;11.10;8.27;;;;;;;;;;5071682;28;20073;-44
2021/08/18 09:45:10;;;;;;;9.23;7.45;;;;;;;;;;5071863;28;20373;-45
2021/08/18 09:47:50;;;;;;;12.73;8.15;;;;;;;;;;5071732;28;20025;-45
2021/08/18 09:50:16;;;;;;;10.50;6.85;;;;;;;;;;5070462;28;20056;-46
2021/08/18 09:52:42;;;;;;;9.50;7.80;;;;;;;;;;5071833;28;20028;-44
2021/08/18 09:55:08;;;;;;;8.95;7.78;;;;;;;;;;5071622;28;20035;-45
2021/08/18 09:57:34;;;;;;;11.55;9.27;;;;;;;;;;5071785;28;20036;-44
2021/08/18 10:00:00;;;;;;;11.88;8.05;;;;;;;;;;5071721;28;20013;-44
2021/08/18 10:02:27;;;;;;;11.32;8.90;;;;;;;;;;5071582;28;20392;-45
2021/08/18 10:04:53;;;;;;;11.18;8.73;;;;;;;;;;5071651;28;20036;-45
2021/08/18 10:07:19;;;;;;;11.63;8.27;;;;;;;;;;5071562;28;20078;-46
2021/08/18 10:09:46;;;;;;;11.50;7.47;;;;;;;;;;5071493;28;20039;-45
2021/08/18 10:12:12;;;;;;;10.60;7.22;;;;;;;;;;5071489;28;20421;-44
2021/08/18 10:14:38;;;;;;;11.93;7.88;;;;;;;;;;5071313;28;20385;-45
2021/08/18 10:17:04;;;;;;;13.32;9.27;;;;;;;;;;5071368;28;20381;-46
2021/08/18 10:19:30;;;;;;;8.85;7.80;;;;;;;;;;5071534;28;20082;-46
2021/08/18 10:22:00;;;;;;;12.77;7.80;;;;;;;;;;5071292;28;20020;-43
2021/08/18 10:24:38;;;;;;;9.00;7.80;;;;;;;;;;5071470;28;20128;-44
2021/08/18 10:27:05;;;;;;;9.13;8.00;;;;;;;;;;5071785;28;20071;-44
2021/08/18 10:29:36;;;;;;;10.07;7.68;;;;;;;;;;5071514;28;20151;-45
2021/08/18 10:32:02;;;;;;;8.45;7.43;;;;;;;;;;5071287;28;20028;-44
2021/08/18 10:34:35;;;;;;;9.68;7.55;;;;;;;;;;5071253;28;20037;-44
2021/08/18 10:37:02;;;;;;;7.95;7.15;;;;;;;;;;5071141;28;20028;-47
2021/08/18 10:39:36;;;;;;;10.35;7.40;;;;;;;;;;5071303;28;20126;-45
2021/08/18 10:42:05;;;;;;;9.02;7.40;;;;;;;;;;5072363;28;20078;-47
2021/08/18 10:44:54;;;;;;;10.40;7.05;;;;;;;;;;5073996;28;20358;-46
2021/08/18 10:47:20;;;;;;;10.93;7.32;;;;;;;;;;5069804;28;20040;-45
2021/08/18 10:49:48;;;;;;;9.65;6.90;;;;;;;;;;5075096;28;20028;-45
2021/08/18 10:52:34;;;;;;;7.60;6.82;;;;;;;;;;5075228;28;20537;-46
2021/08/18 10:55:07;;;;;;;10.38;7.00;;;;;;;;;;5067778;28;20029;-45
2021/08/18 10:57:37;;;;;;;7.95;7.15;;;;;;;;;;5075061;28;20029;-45
2021/08/18 11:00:23;;;;;;;9.50;6.68;;;;;;;;;;5075040;28;20028;-43
2021/08/18 11:02:52;;;;;;;11.55;7.55;;;;;;;;;;5074906;28;20099;-48
2021/08/18 11:05:22;;;;;;;11.18;8.18;;;;;;;;;;5074938;28;20021;-44
2021/08/18 11:08:02;;;;;;;10.98;8.15;;;;;;;;;;5074708;28;20029;-44
2021/08/18 11:10:28;;;;;;;8.40;7.38;;;;;;;;;;5075027;28;20032;-44
2021/08/18 11:12:56;;;;;;;10.32;7.47;;;;;;;;;;5074853;28;20389;-44
2021/08/18 11:15:22;;;;;;;8.85;7.85;;;;;;;;;;5074785;28;20532;-44
2021/08/18 11:17:48;;;;;;;9.82;7.50;;;;;;;;;;5074619;28;20027;-44
2021/08/18 11:20:22;;;;;;;9.60;7.57;;;;;;;;;;5074856;28;20455;-45
2021/08/18 11:23:01;;;;;;;10.32;7.78;;;;;;;;;;5074361;28;20508;-46
2021/08/18 11:25:28;;;;;;;8.05;7.18;;;;;;;;;;5074399;28;20039;-44
2021/08/18 11:27:55;;;;;;;8.10;7.28;;;;;;;;;;5074519;28;20032;-44
2021/08/18 11:30:28;;;;;;;10.23;7.38;;;;;;;;;;5074567;28;20130;-48
2021/08/18 11:32:55;;;;;;;9.13;6.13;;;;;;;;;;5074503;28;20032;-44
2021/08/18 11:35:31;;;;;;;7.88;6.30;;;;;;;;;;5073049;28;20078;-45
2021/08/18 11:38:07;;;;;;;8.05;7.22;;;;;;;;;;5074342;28;20060;-44
2021/08/18 11:40:33;;;;;;;7.93;7.13;;;;;;;;;;5074761;28;20017;-44
2021/08/18 11:43:00;;;;;;;7.70;6.90;;;;;;;;;;5073126;28;20020;-47
2021/08/18 11:45:26;;;;;;;9.60;6.80;;;;;;;;;;5073915;28;20068;-44
2021/08/18 11:48:04;;;;;;;10.82;7.50;;;;;;;;;;5074130;28;20100;-45
2021/08/18 11:50:30;;;;;;;7.32;6.63;;;;;;;;;;5074044;28;20074;-44
2021/08/18 11:53:03;;;;;;;7.82;7.05;;;;;;;;;;5073828;28;20430;-44
2021/08/18 11:55:30;;;;;;;7.30;6.45;;;;;;;;;;5073602;28;20028;-46
2021/08/18 11:58:01;;;;;;;7.68;6.88;;;;;;;;;;5072768;28;20099;-44
2021/08/18 12:00:27;;;;;;;7.15;6.45;;;;;;;;;;5073922;28;20504;-44
2021/08/18 12:02:53;;;;;;;8.38;6.45;;;;;;;;;;5073764;28;20028;-45
2021/08/18 12:05:27;;;;;;;10.25;7.50;;;;;;;;;;5074305;28;20056;-45
2021/08/18 12:08:05;;;;;;;14.05;7.50;;;;;;;;;;5073966;28;20058;-46
2021/08/18 12:10:37;;;;;;;11.32;7.45;;;;;;;;;;5073871;28;20036;-44
2021/08/18 12:13:10;;;;;;;8.45;7.30;;;;;;;;;;5073579;28;20036;-43
2021/08/18 12:15:42;;;;;;;8.70;7.70;;;;;;;;;;5073402;28;20016;-46
2021/08/18 12:18:27;;;;;;;8.07;6.85;;;;;;;;;;5072396;28;20107;-45
2021/08/18 12:20:53;;;;;;;8.07;7.28;;;;;;;;;;5073539;28;20048;-48
2021/08/18 12:23:26;;;;;;;10.15;8.00;;;;;;;;;;5073458;28;20488;-45
2021/08/18 12:25:52;;;;;;;8.52;7.72;;;;;;;;;;5055579;28;20496;-45
2021/08/18 12:28:19;;;;;;;10.73;7.93;;;;;;;;;;5073342;28;20027;-47
2021/08/18 12:31:01;;;;;;;13.68;8.73;;;;;;;;;;5073487;28;20025;-45
2021/08/18 12:33:28;;;;;;;14.70;8.43;;;;;;;;;;5073465;28;20032;-45
2021/08/18 12:36:08;;;;;;;9.68;8.50;;;;;;;;;;5073279;28;20032;-44
2021/08/18 12:38:35;;;;;;;11.57;8.18;;;;;;;;;;5073007;28;20115;-49
2021/08/18 12:41:07;;;;;;;10.13;8.85;;;;;;;;;;5073281;28;20480;-44
2021/08/18 12:43:33;;;;;;;8.68;7.88;;;;;;;;;;5073660;28;20027;-45
2021/08/18 12:45:59;;;;;;;8.57;7.53;;;;;;;;;;5073026;28;20039;-44
2021/08/18 12:48:25;;;;;;;10.40;8.68;;;;;;;;;;5072970;28;20032;-45
2021/08/18 12:50:52;;;;;;;11.32;8.38;;;;;;;;;;5073012;28;20032;-44
2021/08/18 12:53:18;;;;;;;10.73;8.38;;;;;;;;;;5072766;28;20398;-44
2021/08/18 12:55:45;;;;;;;9.32;8.43;;;;;;;;;;5072950;28;20143;-46
2021/08/18 12:58:24;;;;;;;11.55;8.25;;;;;;;;;;5072769;28;20021;-45
2021/08/18 13:00:50;;;;;;;9.25;8.27;;;;;;;;;;5072761;28;20104;-45
2021/08/18 13:03:16;;;;;;;10.80;7.65;;;;;;;;;;5072869;28;20465;-45
2021/08/18 13:05:43;;;;;;;12.02;8.40;;;;;;;;;;5072364;28;20039;-45
2021/08/18 13:08:09;;;;;;;11.50;8.88;;;;;;;;;;5072570;28;20031;-44
2021/08/18 13:10:35;;;;;;;9.30;7.90;;;;;;;;;;5072598;28;20024;-44
2021/08/18 13:13:01;;;;;;;8.50;7.50;;;;;;;;;;5072559;28;20056;-45
2021/08/18 13:15:27;;;;;;;8.75;7.95;;;;;;;;;;5072401;28;20385;-45
2021/08/18 13:17:53;;;;;;;10.40;8.52;;;;;;;;;;5072536;28;20508;-45
2021/08/18 13:20:19;;;;;;;8.82;8.02;;;;;;;;;;5072596;28;20020;-45
2021/08/18 13:22:45;;;;;;;11.50;8.27;;;;;;;;;;5072552;28;20123;-45
2021/08/18 13:25:12;;;;;;;15.57;9.70;;;;;;;;;;5071009;28;20480;-44
2021/08/18 13:27:38;;;;;;;9.20;8.30;;;;;;;;;;5072257;28;20029;-44
2021/08/18 13:30:08;;;;;;;10.27;8.05;;;;;;;;;;5072191;28;20021;-45
2021/08/18 13:32:34;;;;;;;9.02;7.82;;;;;;;;;;5072497;28;20028;-46
2021/08/18 13:35:00;;;;;;;16.58;9.20;;;;;;;;;;5072603;28;20028;-44
2021/08/18 13:37:26;;;;;;;9.80;8.15;;;;;;;;;;5071820;28;20032;-43
2021/08/18 13:39:52;;;;;;;13.00;8.85;;;;;;;;;;5071964;28;20025;-45
2021/08/18 13:42:18;;;;;;;8.60;7.80;;;;;;;;;;5071913;28;20021;-44
2021/08/18 13:44:44;;;;;;;8.68;7.68;;;;;;;;;;5071840;28;20362;-45
2021/08/18 13:47:10;;;;;;;8.68;7.75;;;;;;;;;;5071733;28;20035;-45
2021/08/18 13:49:36;;;;;;;9.05;8.23;;;;;;;;;;5071779;28;20029;-47
2021/08/18 13:52:02;;;;;;;9.48;8.38;;;;;;;;;;5071686;28;20070;-44
2021/08/18 13:54:28;;;;;;;10.25;8.35;;;;;;;;;;5071564;28;20028;-47
2021/08/18 13:56:54;;;;;;;10.85;8.48;;;;;;;;;;5071734;28;20025;-44
2021/08/18 13:59:21;;;;;;;10.38;8.50;;;;;;;;;;5071536;28;20362;-44
2021/08/18 14:01:47;;;;;;;11.43;8.05;;;;;;;;;;5071541;28;20020;-48
2021/08/18 14:04:13;;;;;;;10.43;7.47;;;;;;;;;;5071553;28;20470;-46
2021/08/18 14:06:40;;;;;;;10.70;7.90;;;;;;;;;;5071351;28;20047;-46
2021/08/18 14:09:06;;;;;;;11.82;8.13;;;;;;;;;;5071453;28;20025;-45
2021/08/18 14:11:32;;;;;;;7.70;7.00;;;;;;;;;;5071413;28;20058;-45
2021/08/18 14:13:58;;;;;;;9.10;6.88;;;;;;;;;;5071405;28;20020;-46
2021/08/18 14:16:24;;;;;;;9.27;7.88;;;;;;;;;;5070795;28;20036;-45
2021/08/18 14:18:51;;;;;;;9.68;7.30;;;;;;;;;;5071430;28;20040;-44
2021/08/18 14:21:17;;;;;;;11.52;8.48;;;;;;;;;;5071358;28;20021;-44
2021/08/18 14:23:43;;;;;;;9.20;7.78;;;;;;;;;;5071594;28;20052;-45
2021/08/18 14:26:10;;;;;;;8.73;7.93;;;;;;;;;;5071326;28;20071;-44
2021/08/18 14:28:36;;;;;;;8.80;7.95;;;;;;;;;;5071359;28;20058;-45
2021/08/18 14:31:02;;;;;;;9.98;8.00;;;;;;;;;;5070189;28;20032;-47